Terminal Aerodrome Forecast
Issued by NWS

Home | Current Version | Previous Version | Text Only | Print | Product List | Glossary On
Versions: 1 2 3 4 5 6 7 8 9 10 11 12 13 14 15 16 17 18 19 20 21 22
000
FTUS44 KLZK 222300
TAFHRO
TAF
KHRO 222320Z 2300/2324 15011KT 4SM -RA BR BKN005 WS020/20030KT
     FM230600 14010KT 5SM BR VCTS OVC008CB WS020/19035KT
      TEMPO 2306/2310 3SM TSRA BR BKN004 OVC008CB
     FM231000 13010KT 5SM -RA BR VCTS OVC008CB WS020/19040KT
     FM231800 14007KT 5SM BR VCSH SCT008 BKN012=

USA.gov is the U.S. government's official web portal to all federal, state and local government web resources and services.